sensor_id;sensor_type;location;lat;lon;timestamp;temperature;humidity
70928;SHT31;58587;53.034;18.576;2022-09-12T13:23:27;25.77;38.91
70928;SHT31;58587;53.034;18.576;2022-09-12T13:25:55;26.80;34.54
70928;SHT31;58587;53.034;18.576;2022-09-12T13:28:22;27.89;31.81
70928;SHT31;58587;53.034;18.576;2022-09-12T13:39:14;30.17;27.93
70928;SHT31;58587;53.034;18.576;2022-09-12T13:44:21;29.30;29.75
70928;SHT31;58587;53.034;18.576;2022-09-12T13:46:49;29.47;29.72
70928;SHT31;58587;53.034;18.576;2022-09-12T13:49:36;29.15;28.28
70928;SHT31;58587;53.034;18.576;2022-09-12T13:52:05;29.81;29.62
70928;SHT31;58587;53.034;18.576;2022-09-12T13:54:34;30.27;28.53
70928;SHT31;58587;53.034;18.576;2022-09-12T13:57:03;30.84;26.74
70928;SHT31;58587;53.034;18.576;2022-09-12T13:59:40;30.76;26.73
70928;SHT31;58587;53.034;18.576;2022-09-12T14:02:21;31.15;26.58
70928;SHT31;58587;53.034;18.576;2022-09-12T14:04:48;30.84;25.93
70928;SHT31;58587;53.034;18.576;2022-09-12T14:12:51;31.65;24.82
70928;SHT31;58587;53.034;18.576;2022-09-12T14:15:26;31.61;25.93
70928;SHT31;58587;53.034;18.576;2022-09-12T14:17:55;31.49;25.05
70928;SHT31;58587;53.034;18.576;2022-09-12T14:20:26;31.57;25.52
70928;SHT31;58587;53.034;18.576;2022-09-12T14:23:02;31.57;26.20
70928;SHT31;58587;53.034;18.576;2022-09-12T14:25:37;31.14;27.00
70928;SHT31;58587;53.034;18.576;2022-09-12T14:28:05;30.86;26.28
70928;SHT31;58587;53.034;18.576;2022-09-12T14:30:35;30.77;26.23
70928;SHT31;58587;53.034;18.576;2022-09-12T14:33:04;29.78;27.78
70928;SHT31;58587;53.034;18.576;2022-09-12T14:35:30;29.35;29.03
70928;SHT31;58587;53.034;18.576;2022-09-12T14:38:05;28.74;30.23
70928;SHT31;58587;53.034;18.576;2022-09-12T14:40:39;28.37;29.69
70928;SHT31;58587;53.034;18.576;2022-09-12T14:43:28;27.92;30.39
70928;SHT31;58587;53.034;18.576;2022-09-12T14:46:03;27.51;30.73
70928;SHT31;58587;53.034;18.576;2022-09-12T14:48:33;27.21;31.56
70928;SHT31;58587;53.034;18.576;2022-09-12T14:51:00;26.79;30.01
70928;SHT31;58587;53.034;18.576;2022-09-12T14:53:32;26.15;31.17
70928;SHT31;58587;53.034;18.576;2022-09-12T14:56:09;25.41;32.70
70928;SHT31;58587;53.034;18.576;2022-09-12T14:58:35;24.80;34.20
70928;SHT31;58587;53.034;18.576;2022-09-12T15:06:38;23.70;37.53
70928;SHT31;58587;53.034;18.576;2022-09-12T15:09:12;23.37;37.93
70928;SHT31;58587;53.034;18.576;2022-09-12T15:11:37;22.92;37.39
70928;SHT31;58587;53.034;18.576;2022-09-12T15:14:13;22.64;41.00
70928;SHT31;58587;53.034;18.576;2022-09-12T15:16:38;22.48;38.57
70928;SHT31;58587;53.034;18.576;2022-09-12T15:19:04;22.13;40.54
70928;SHT31;58587;53.034;18.576;2022-09-12T15:21:29;21.87;39.17
70928;SHT31;58587;53.034;18.576;2022-09-12T15:23:55;21.87;38.97
70928;SHT31;58587;53.034;18.576;2022-09-12T15:26:22;21.62;40.70
70928;SHT31;58587;53.034;18.576;2022-09-12T15:28:49;21.25;42.34
70928;SHT31;58587;53.034;18.576;2022-09-12T15:31:33;21.09;41.32
70928;SHT31;58587;53.034;18.576;2022-09-12T15:34:00;20.75;42.10
70928;SHT31;58587;53.034;18.576;2022-09-12T15:36:26;20.52;44.45
70928;SHT31;58587;53.034;18.576;2022-09-12T15:38:53;20.41;45.46
70928;SHT31;58587;53.034;18.576;2022-09-12T15:43:48;20.13;46.20
70928;SHT31;58587;53.034;18.576;2022-09-12T15:46:15;19.96;45.09
70928;SHT31;58587;53.034;18.576;2022-09-12T15:48:41;19.82;46.66
70928;SHT31;58587;53.034;18.576;2022-09-12T15:51:18;19.63;48.64
70928;SHT31;58587;53.034;18.576;2022-09-12T15:53:45;19.49;50.08
70928;SHT31;58587;53.034;18.576;2022-09-12T15:56:16;19.38;50.61
70928;SHT31;58587;53.034;18.576;2022-09-12T15:58:41;19.19;51.69
70928;SHT31;58587;53.034;18.576;2022-09-12T16:01:12;18.98;52.62
70928;SHT31;58587;53.034;18.576;2022-09-12T16:03:38;18.81;54.91
70928;SHT31;58587;53.034;18.576;2022-09-12T16:06:04;18.64;55.04
70928;SHT31;58587;53.034;18.576;2022-09-12T16:08:31;18.48;55.91
70928;SHT31;58587;53.034;18.576;2022-09-12T16:11:09;18.37;56.07
70928;SHT31;58587;53.034;18.576;2022-09-12T16:13:36;18.23;57.63
70928;SHT31;58587;53.034;18.576;2022-09-12T16:16:02;17.99;57.85
70928;SHT31;58587;53.034;18.576;2022-09-12T16:18:28;17.90;59.20
70928;SHT31;58587;53.034;18.576;2022-09-12T16:20:54;17.81;58.96
70928;SHT31;58587;53.034;18.576;2022-09-12T16:23:20;17.65;59.64
70928;SHT31;58587;53.034;18.576;2022-09-12T16:25:56;17.49;61.30
70928;SHT31;58587;53.034;18.576;2022-09-12T16:28:22;17.42;61.29
70928;SHT31;58587;53.034;18.576;2022-09-12T16:31:03;17.27;61.50
70928;SHT31;58587;53.034;18.576;2022-09-12T16:33:30;17.20;62.05
70928;SHT31;58587;53.034;18.576;2022-09-12T16:36:10;17.08;63.71
70928;SHT31;58587;53.034;18.576;2022-09-12T16:38:40;17.00;63.95
70928;SHT31;58587;53.034;18.576;2022-09-12T16:41:06;16.90;64.58
70928;SHT31;58587;53.034;18.576;2022-09-12T16:43:33;16.77;64.72
70928;SHT31;58587;53.034;18.576;2022-09-12T16:46:04;16.67;65.03
70928;SHT31;58587;53.034;18.576;2022-09-12T16:48:30;16.57;66.08
70928;SHT31;58587;53.034;18.576;2022-09-12T16:51:00;16.48;66.47
70928;SHT31;58587;53.034;18.576;2022-09-12T16:53:30;16.43;66.94
70928;SHT31;58587;53.034;18.576;2022-09-12T16:55:55;16.26;67.50
70928;SHT31;58587;53.034;18.576;2022-09-12T16:58:21;16.19;67.37
70928;SHT31;58587;53.034;18.576;2022-09-12T17:00:46;16.12;67.89
70928;SHT31;58587;53.034;18.576;2022-09-12T17:03:12;16.05;68.65
70928;SHT31;58587;53.034;18.576;2022-09-12T17:05:38;15.94;68.77
70928;SHT31;58587;53.034;18.576;2022-09-12T17:08:03;15.84;69.06
70928;SHT31;58587;53.034;18.576;2022-09-12T17:10:29;15.75;69.34
70928;SHT31;58587;53.034;18.576;2022-09-12T17:12:55;15.64;69.42
70928;SHT31;58587;53.034;18.576;2022-09-12T17:15:22;15.57;69.54
70928;SHT31;58587;53.034;18.576;2022-09-12T17:17:47;15.51;70.03
70928;SHT31;58587;53.034;18.576;2022-09-12T17:20:13;15.41;70.30
70928;SHT31;58587;53.034;18.576;2022-09-12T17:22:38;15.31;70.26
70928;SHT31;58587;53.034;18.576;2022-09-12T17:25:04;15.22;70.98
70928;SHT31;58587;53.034;18.576;2022-09-12T17:27:30;15.08;71.39
70928;SHT31;58587;53.034;18.576;2022-09-12T17:29:55;15.00;71.94
70928;SHT31;58587;53.034;18.576;2022-09-12T17:32:20;14.94;71.68
70928;SHT31;58587;53.034;18.576;2022-09-12T17:34:46;14.84;71.83
70928;SHT31;58587;53.034;18.576;2022-09-12T17:37:11;14.80;71.45
70928;SHT31;58587;53.034;18.576;2022-09-12T17:39:38;14.73;71.36
70928;SHT31;58587;53.034;18.576;2022-09-12T17:42:04;14.60;71.42
70928;SHT31;58587;53.034;18.576;2022-09-12T17:44:30;14.53;71.71
70928;SHT31;58587;53.034;18.576;2022-09-12T17:46:56;14.49;71.88
70928;SHT31;58587;53.034;18.576;2022-09-12T17:49:21;14.42;71.95
70928;SHT31;58587;53.034;18.576;2022-09-12T17:51:47;14.36;72.28
70928;SHT31;58587;53.034;18.576;2022-09-12T17:54:17;14.26;72.45
70928;SHT31;58587;53.034;18.576;2022-09-12T17:56:44;14.24;72.63
70928;SHT31;58587;53.034;18.576;2022-09-12T17:59:17;14.18;72.46
70928;SHT31;58587;53.034;18.576;2022-09-12T18:01:43;14.07;73.23
70928;SHT31;58587;53.034;18.576;2022-09-12T18:04:27;14.02;73.41
70928;SHT31;58587;53.034;18.576;2022-09-12T18:06:52;13.91;73.84
70928;SHT31;58587;53.034;18.576;2022-09-12T18:09:21;13.82;73.94
70928;SHT31;58587;53.034;18.576;2022-09-12T18:11:47;13.77;73.94
70928;SHT31;58587;53.034;18.576;2022-09-12T18:14:14;13.74;74.17
70928;SHT31;58587;53.034;18.576;2022-09-12T18:16:39;13.64;74.12
70928;SHT31;58587;53.034;18.576;2022-09-12T18:19:05;13.60;74.48
70928;SHT31;58587;53.034;18.576;2022-09-12T18:21:30;13.56;74.97
70928;SHT31;58587;53.034;18.576;2022-09-12T18:23:57;13.47;75.18
70928;SHT31;58587;53.034;18.576;2022-09-12T18:26:24;13.43;75.61
70928;SHT31;58587;53.034;18.576;2022-09-12T18:28:50;13.37;75.91
70928;SHT31;58587;53.034;18.576;2022-09-12T18:31:18;13.30;76.27
70928;SHT31;58587;53.034;18.576;2022-09-12T18:33:44;13.30;76.67
70928;SHT31;58587;53.034;18.576;2022-09-12T18:36:11;13.27;76.89
70928;SHT31;58587;53.034;18.576;2022-09-12T18:38:38;13.23;77.17
70928;SHT31;58587;53.034;18.576;2022-09-12T18:41:08;13.17;77.52
70928;SHT31;58587;53.034;18.576;2022-09-12T18:43:34;13.09;77.47
70928;SHT31;58587;53.034;18.576;2022-09-12T18:46:04;13.07;77.98
70928;SHT31;58587;53.034;18.576;2022-09-12T18:48:31;13.03;78.01
70928;SHT31;58587;53.034;18.576;2022-09-12T18:51:09;13.03;78.41
70928;SHT31;58587;53.034;18.576;2022-09-12T18:53:34;12.99;78.60
70928;SHT31;58587;53.034;18.576;2022-09-12T18:56:06;12.97;78.52
70928;SHT31;58587;53.034;18.576;2022-09-12T18:58:39;12.95;78.71
70928;SHT31;58587;53.034;18.576;2022-09-12T19:01:18;12.93;78.52
70928;SHT31;58587;53.034;18.576;2022-09-12T19:03:44;12.89;78.87
70928;SHT31;58587;53.034;18.576;2022-09-12T19:06:13;12.83;79.13
70928;SHT31;58587;53.034;18.576;2022-09-12T19:08:40;12.81;78.98
70928;SHT31;58587;53.034;18.576;2022-09-12T19:11:06;12.81;79.37
70928;SHT31;58587;53.034;18.576;2022-09-12T19:13:35;12.76;79.28
70928;SHT31;58587;53.034;18.576;2022-09-12T19:16:01;12.72;79.53
70928;SHT31;58587;53.034;18.576;2022-09-12T19:18:27;12.66;79.51
70928;SHT31;58587;53.034;18.576;2022-09-12T19:20:53;12.63;79.54
70928;SHT31;58587;53.034;18.576;2022-09-12T19:23:18;12.58;79.54
70928;SHT31;58587;53.034;18.576;2022-09-12T19:25:49;12.58;79.59
70928;SHT31;58587;53.034;18.576;2022-09-12T19:28:18;12.52;79.63
70928;SHT31;58587;53.034;18.576;2022-09-12T19:30:47;12.45;79.98
70928;SHT31;58587;53.034;18.576;2022-09-12T19:33:12;12.42;79.89
70928;SHT31;58587;53.034;18.576;2022-09-12T19:35:38;12.38;79.78
70928;SHT31;58587;53.034;18.576;2022-09-12T19:38:03;12.30;79.92
70928;SHT31;58587;53.034;18.576;2022-09-12T19:40:29;12.28;80.14
70928;SHT31;58587;53.034;18.576;2022-09-12T19:42:55;12.24;80.13
70928;SHT31;58587;53.034;18.576;2022-09-12T19:45:21;12.21;80.25
70928;SHT31;58587;53.034;18.576;2022-09-12T19:47:46;12.17;80.38
70928;SHT31;58587;53.034;18.576;2022-09-12T19:50:12;12.10;80.41
70928;SHT31;58587;53.034;18.576;2022-09-12T19:52:37;12.07;80.49
70928;SHT31;58587;53.034;18.576;2022-09-12T19:55:02;12.02;80.50
70928;SHT31;58587;53.034;18.576;2022-09-12T19:57:28;11.95;80.58
70928;SHT31;58587;53.034;18.576;2022-09-12T19:59:53;11.91;80.56
70928;SHT31;58587;53.034;18.576;2022-09-12T20:02:19;11.83;80.31
70928;SHT31;58587;53.034;18.576;2022-09-12T20:04:45;11.80;80.65
70928;SHT31;58587;53.034;18.576;2022-09-12T20:07:11;11.76;80.75
70928;SHT31;58587;53.034;18.576;2022-09-12T20:09:37;11.70;80.71
70928;SHT31;58587;53.034;18.576;2022-09-12T20:12:03;11.70;80.94
70928;SHT31;58587;53.034;18.576;2022-09-12T20:14:28;11.66;81.01
70928;SHT31;58587;53.034;18.576;2022-09-12T20:16:54;11.60;80.90
70928;SHT31;58587;53.034;18.576;2022-09-12T20:19:19;11.57;81.24
70928;SHT31;58587;53.034;18.576;2022-09-12T20:21:45;11.55;81.47
70928;SHT31;58587;53.034;18.576;2022-09-12T20:24:13;11.56;80.98
70928;SHT31;58587;53.034;18.576;2022-09-12T20:26:40;11.52;81.00
70928;SHT31;58587;53.034;18.576;2022-09-12T20:29:07;11.52;81.26
70928;SHT31;58587;53.034;18.576;2022-09-12T20:31:33;11.52;81.28
70928;SHT31;58587;53.034;18.576;2022-09-12T20:33:59;11.47;81.31
70928;SHT31;58587;53.034;18.576;2022-09-12T20:36:25;11.44;81.56
70928;SHT31;58587;53.034;18.576;2022-09-12T20:38:53;11.42;81.77
70928;SHT31;58587;53.034;18.576;2022-09-12T20:41:21;11.35;81.69
70928;SHT31;58587;53.034;18.576;2022-09-12T20:43:54;11.32;81.80
70928;SHT31;58587;53.034;18.576;2022-09-12T20:46:20;11.29;81.94
70928;SHT31;58587;53.034;18.576;2022-09-12T20:48:46;11.25;82.10
70928;SHT31;58587;53.034;18.576;2022-09-12T20:51:12;11.19;82.04
70928;SHT31;58587;53.034;18.576;2022-09-12T20:53:38;11.19;82.27
70928;SHT31;58587;53.034;18.576;2022-09-12T20:56:04;11.14;82.38
70928;SHT31;58587;53.034;18.576;2022-09-12T20:58:31;11.06;82.33
70928;SHT31;58587;53.034;18.576;2022-09-12T21:00:58;11.05;82.42
70928;SHT31;58587;53.034;18.576;2022-09-12T21:03:24;11.01;82.57
70928;SHT31;58587;53.034;18.576;2022-09-12T21:05:50;10.96;82.52
70928;SHT31;58587;53.034;18.576;2022-09-12T21:08:15;10.95;82.54
70928;SHT31;58587;53.034;18.576;2022-09-12T21:10:44;10.94;82.39
70928;SHT31;58587;53.034;18.576;2022-09-12T21:13:10;10.92;82.53
70928;SHT31;58587;53.034;18.576;2022-09-12T21:15:37;10.92;82.76
70928;SHT31;58587;53.034;18.576;2022-09-12T21:18:03;10.94;82.90
70928;SHT31;58587;53.034;18.576;2022-09-12T21:20:29;10.88;82.76
70928;SHT31;58587;53.034;18.576;2022-09-12T21:22:54;10.86;82.98
70928;SHT31;58587;53.034;18.576;2022-09-12T21:25:19;10.79;82.96
70928;SHT31;58587;53.034;18.576;2022-09-12T21:27:45;10.76;83.11
70928;SHT31;58587;53.034;18.576;2022-09-12T21:30:11;10.75;83.23
70928;SHT31;58587;53.034;18.576;2022-09-12T21:32:36;10.67;83.10
70928;SHT31;58587;53.034;18.576;2022-09-12T21:35:03;10.63;83.11
70928;SHT31;58587;53.034;18.576;2022-09-12T21:37:29;10.58;83.26
70928;SHT31;58587;53.034;18.576;2022-09-12T21:39:55;10.58;83.28
70928;SHT31;58587;53.034;18.576;2022-09-12T21:42:21;10.55;83.16
70928;SHT31;58587;53.034;18.576;2022-09-12T21:44:47;10.53;83.31
70928;SHT31;58587;53.034;18.576;2022-09-12T21:47:12;10.45;83.18
70928;SHT31;58587;53.034;18.576;2022-09-12T21:49:37;10.40;83.43
70928;SHT31;58587;53.034;18.576;2022-09-12T21:52:03;10.38;83.58
70928;SHT31;58587;53.034;18.576;2022-09-12T21:54:28;10.37;83.64
70928;SHT31;58587;53.034;18.576;2022-09-12T21:56:54;10.33;83.40
70928;SHT31;58587;53.034;18.576;2022-09-12T21:59:19;10.30;83.57
70928;SHT31;58587;53.034;18.576;2022-09-12T22:01:45;10.25;83.74
70928;SHT31;58587;53.034;18.576;2022-09-12T22:04:10;10.24;83.72
70928;SHT31;58587;53.034;18.576;2022-09-12T22:06:36;10.23;83.90
70928;SHT31;58587;53.034;18.576;2022-09-12T22:09:03;10.24;83.84
70928;SHT31;58587;53.034;18.576;2022-09-12T22:11:29;10.21;83.94
70928;SHT31;58587;53.034;18.576;2022-09-12T22:13:54;10.20;84.10
70928;SHT31;58587;53.034;18.576;2022-09-12T22:16:20;10.18;84.16
70928;SHT31;58587;53.034;18.576;2022-09-12T22:18:45;10.16;84.46
70928;SHT31;58587;53.034;18.576;2022-09-12T22:21:17;10.14;84.50
70928;SHT31;58587;53.034;18.576;2022-09-12T22:23:43;10.10;84.45
70928;SHT31;58587;53.034;18.576;2022-09-12T22:26:28;10.07;84.27
70928;SHT31;58587;53.034;18.576;2022-09-12T22:28:54;9.99;84.31
70928;SHT31;58587;53.034;18.576;2022-09-12T22:31:20;9.99;84.19
70928;SHT31;58587;53.034;18.576;2022-09-12T22:33:46;9.93;84.24
70928;SHT31;58587;53.034;18.576;2022-09-12T22:36:12;9.90;84.29
70928;SHT31;58587;53.034;18.576;2022-09-12T22:38:37;9.89;84.29
70928;SHT31;58587;53.034;18.576;2022-09-12T22:41:08;9.87;84.55
70928;SHT31;58587;53.034;18.576;2022-09-12T22:43:34;9.85;84.63
70928;SHT31;58587;53.034;18.576;2022-09-12T22:46:04;9.83;84.56
70928;SHT31;58587;53.034;18.576;2022-09-12T22:48:29;9.82;84.63
70928;SHT31;58587;53.034;18.576;2022-09-12T22:50:55;9.79;84.80
70928;SHT31;58587;53.034;18.576;2022-09-12T22:53:20;9.70;84.58
70928;SHT31;58587;53.034;18.576;2022-09-12T22:55:46;9.68;84.79
70928;SHT31;58587;53.034;18.576;2022-09-12T22:58:11;9.68;84.67
70928;SHT31;58587;53.034;18.576;2022-09-12T23:00:37;9.62;84.64
70928;SHT31;58587;53.034;18.576;2022-09-12T23:03:03;9.63;84.69
70928;SHT31;58587;53.034;18.576;2022-09-12T23:05:28;9.62;84.50
70928;SHT31;58587;53.034;18.576;2022-09-12T23:07:54;9.58;84.73
70928;SHT31;58587;53.034;18.576;2022-09-12T23:10:20;9.62;84.86
70928;SHT31;58587;53.034;18.576;2022-09-12T23:12:46;9.59;85.38
70928;SHT31;58587;53.034;18.576;2022-09-12T23:15:11;9.59;85.43
70928;SHT31;58587;53.034;18.576;2022-09-12T23:17:36;9.60;85.48
70928;SHT31;58587;53.034;18.576;2022-09-12T23:20:03;9.59;85.46
70928;SHT31;58587;53.034;18.576;2022-09-12T23:22:29;9.62;85.45
70928;SHT31;58587;53.034;18.576;2022-09-12T23:24:54;9.58;85.44
70928;SHT31;58587;53.034;18.576;2022-09-12T23:27:19;9.53;85.27
70928;SHT31;58587;53.034;18.576;2022-09-12T23:29:45;9.49;85.10
70928;SHT31;58587;53.034;18.576;2022-09-12T23:32:11;9.40;85.06
70928;SHT31;58587;53.034;18.576;2022-09-12T23:34:36;9.38;85.18
70928;SHT31;58587;53.034;18.576;2022-09-12T23:37:01;9.36;85.02
70928;SHT31;58587;53.034;18.576;2022-09-12T23:39:27;9.34;85.09
70928;SHT31;58587;53.034;18.576;2022-09-12T23:41:53;9.32;85.00
70928;SHT31;58587;53.034;18.576;2022-09-12T23:44:18;9.24;84.92
70928;SHT31;58587;53.034;18.576;2022-09-12T23:46:43;9.21;85.13
70928;SHT31;58587;53.034;18.576;2022-09-12T23:49:09;9.18;84.89
70928;SHT31;58587;53.034;18.576;2022-09-12T23:51:34;9.21;85.08
70928;SHT31;58587;53.034;18.576;2022-09-12T23:54:00;9.15;85.17
70928;SHT31;58587;53.034;18.576;2022-09-12T23:56:25;9.14;85.17
70928;SHT31;58587;53.034;18.576;2022-09-12T23:58:51;9.12;85.38
